<?xml version="1.0" encoding="UTF-8"?>
<gpx creator="StravaGPX" version="1.1" xmlns="http://www.topografix.com/GPX/1/1" xmlns:xsi="http://www.w3.org/2001/XMLSchema-instance" xsi:schemaLocation="http://www.topografix.com/GPX/1/1 http://www.topografix.com/GPX/1/1/gpx.xsd http://www.garmin.com/xmlschemas/GpxExtensions/v3 http://www.garmin.com/xmlschemas/GpxExtensionsv3.xsd http://www.garmin.com/xmlschemas/TrackPointExtension/v1 http://www.garmin.com/xmlschemas/TrackPointExtensionv1.xsd http://www.garmin.com/xmlschemas/GpxExtensions/v3 http://www.garmin.com/xmlschemas/GpxExtensionsv3.xsd http://www.garmin.com/xmlschemas/TrackPointExtension/v1 http://www.garmin.com/xmlschemas/TrackPointExtensionv1.xsd">
 <metadata>
  <time>2016-08-27T13:03:13Z</time>
 </metadata>
 <trk>
  <name>Pendleton Fell Race</name>
  <trkseg>
   <trkpt lat="53.8531020" lon="-2.3735010">
    <ele>122.6</ele>
    <time>2016-08-27T13:03:13Z</time>
   </trkpt>
   <trkpt lat="53.8532690" lon="-2.3733640">
    <ele>122.2</ele>
    <time>2016-08-27T13:03:17Z</time>
   </trkpt>
   <trkpt lat="53.8534360" lon="-2.3732220">
    <ele>121.8</ele>
    <time>2016-08-27T13:03:21Z</time>
   </trkpt>
   <trkpt lat="53.8536040" lon="-2.3730860">
    <ele>121.3</ele>
    <time>2016-08-27T13:03:25Z</time>
   </trkpt>
   <trkpt lat="53.8537940" lon="-2.3729360">
    <ele>120.9</ele>
    <time>2016-08-27T13:03:30Z</time>
   </trkpt>
   <trkpt lat="53.8538250" lon="-2.3729080">
    <ele>120.9</ele>
    <time>2016-08-27T13:03:31Z</time>
   </trkpt>
   <trkpt lat="53.8539030" lon="-2.3728550">
    <ele>121.0</ele>
    <time>2016-08-27T13:03:34Z</time>
   </trkpt>
   <trkpt lat="53.8539710" lon="-2.3730010">
    <ele>120.6</ele>
    <time>2016-08-27T13:03:38Z</time>
   </trkpt>
   <trkpt lat="53.8539870" lon="-2.3730410">
    <ele>120.5</ele>
    <time>2016-08-27T13:03:39Z</time>
   </trkpt>
   <trkpt lat="53.8540750" lon="-2.3733070">
    <ele>120.0</ele>
    <time>2016-08-27T13:03:43Z</time>
   </trkpt>
   <trkpt lat="53.8541840" lon="-2.3736170">
    <ele>119.2</ele>
    <time>2016-08-27T13:03:48Z</time>
   </trkpt>
   <trkpt lat="53.8541840" lon="-2.3736170">
    <ele>119.2</ele>
    <time>2016-08-27T13:03:52Z</time>
   </trkpt>
   <trkpt lat="53.8543110" lon="-2.3741260">
    <ele>118.3</ele>
    <time>2016-08-27T13:03:58Z</time>
   </trkpt>
   <trkpt lat="53.8542720" lon="-2.3741650">
    <ele>118.4</ele>
    <time>2016-08-27T13:03:59Z</time>
   </trkpt>
   <trkpt lat="53.8542720" lon="-2.3741650">
    <ele>118.4</ele>
    <time>2016-08-27T13:04:02Z</time>
   </trkpt>
   <trkpt lat="53.8542720" lon="-2.3741650">
    <ele>118.4</ele>
    <time>2016-08-27T13:04:05Z</time>
   </trkpt>
   <trkpt lat="53.8539580" lon="-2.3744180">
    <ele>119.3</ele>
    <time>2016-08-27T13:04:08Z</time>
   </trkpt>
   <trkpt lat="53.8538410" lon="-2.3745640">
    <ele>119.7</ele>
    <time>2016-08-27T13:04:12Z</time>
   </trkpt>
   <trkpt lat="53.8536470" lon="-2.3748310">
    <ele>119.9</ele>
    <time>2016-08-27T13:04:19Z</time>
   </trkpt>
   <trkpt lat="53.8535940" lon="-2.3748920">
    <ele>119.9</ele>
    <time>2016-08-27T13:04:21Z</time>
   </trkpt>
   <trkpt lat="53.8534930" lon="-2.3748180">
    <ele>120.2</ele>
    <time>2016-08-27T13:04:25Z</time>
   </trkpt>
   <trkpt lat="53.8533790" lon="-2.3745560">
    <ele>120.9</ele>
    <time>2016-08-27T13:04:31Z</time>
   </trkpt>
   <trkpt lat="53.8532670" lon="-2.3742780">
    <ele>121.4</ele>
    <time>2016-08-27T13:04:37Z</time>
   </trkpt>
   <trkpt lat="53.8531640" lon="-2.3740070">
    <ele>121.9</ele>
    <time>2016-08-27T13:04:43Z</time>
   </trkpt>
   <trkpt lat="53.8530530" lon="-2.3737070">
    <ele>122.6</ele>
    <time>2016-08-27T13:04:50Z</time>
   </trkpt>
   <trkpt lat="53.8529620" lon="-2.3735640">
    <ele>123.1</ele>
    <time>2016-08-27T13:04:54Z</time>
   </trkpt>
   <trkpt lat="53.8528500" lon="-2.3735910">
    <ele>123.4</ele>
    <time>2016-08-27T13:04:58Z</time>
   </trkpt>
   <trkpt lat="53.8528220" lon="-2.3736310">
    <ele>123.4</ele>
    <time>2016-08-27T13:04:59Z</time>
   </trkpt>
   <trkpt lat="53.8526900" lon="-2.3738730">
    <ele>123.4</ele>
    <time>2016-08-27T13:05:05Z</time>
   </trkpt>
   <trkpt lat="53.8526670" lon="-2.3738810">
    <ele>123.4</ele>
    <time>2016-08-27T13:05:06Z</time>
   </trkpt>
   <trkpt lat="53.8525590" lon="-2.3737710">
    <ele>123.8</ele>
    <time>2016-08-27T13:05:10Z</time>
   </trkpt>
   <trkpt lat="53.8524690" lon="-2.3736280">
    <ele>124.2</ele>
    <time>2016-08-27T13:05:14Z</time>
   </trkpt>
   <trkpt lat="53.8523380" lon="-2.3733920">
    <ele>124.8</ele>
    <time>2016-08-27T13:05:20Z</time>
   </trkpt>
   <trkpt lat="53.8522060" lon="-2.3731560">
    <ele>125.4</ele>
    <time>2016-08-27T13:05:26Z</time>
   </trkpt>
   <trkpt lat="53.8520840" lon="-2.3728930">
    <ele>126.0</ele>
    <time>2016-08-27T13:05:32Z</time>
   </trkpt>
   <trkpt lat="53.8519870" lon="-2.3726530">
    <ele>126.4</ele>
    <time>2016-08-27T13:05:37Z</time>
   </trkpt>
   <trkpt lat="53.8518840" lon="-2.3724320">
    <ele>126.7</ele>
    <time>2016-08-27T13:05:42Z</time>
   </trkpt>
   <trkpt lat="53.8517740" lon="-2.3721850">
    <ele>127.2</ele>
    <time>2016-08-27T13:05:48Z</time>
   </trkpt>
   <trkpt lat="53.8517560" lon="-2.3721360">
    <ele>127.3</ele>
    <time>2016-08-27T13:05:49Z</time>
   </trkpt>
   <trkpt lat="53.8516880" lon="-2.3718380">
    <ele>127.9</ele>
    <time>2016-08-27T13:05:54Z</time>
   </trkpt>
   <trkpt lat="53.8516490" lon="-2.3715210">
    <ele>128.5</ele>
    <time>2016-08-27T13:05:59Z</time>
   </trkpt>
   <trkpt lat="53.8516350" lon="-2.3711660">
    <ele>129.3</ele>
    <time>2016-08-27T13:06:05Z</time>
   </trkpt>
   <trkpt lat="53.8516460" lon="-2.3708810">
    <ele>129.9</ele>
    <time>2016-08-27T13:06:10Z</time>
   </trkpt>
   <trkpt lat="53.8516410" lon="-2.3705430">
    <ele>130.8</ele>
    <time>2016-08-27T13:06:16Z</time>
   </trkpt>
   <trkpt lat="53.8516480" lon="-2.3703070">
    <ele>131.4</ele>
    <time>2016-08-27T13:06:20Z</time>
   </trkpt>
   <trkpt lat="53.8516500" lon="-2.3700300">
    <ele>132.4</ele>
    <time>2016-08-27T13:06:25Z</time>
   </trkpt>
   <trkpt lat="53.8516450" lon="-2.3697640">
    <ele>133.4</ele>
    <time>2016-08-27T13:06:30Z</time>
   </trkpt>
   <trkpt lat="53.8516290" lon="-2.3694470">
    <ele>134.3</ele>
    <time>2016-08-27T13:06:36Z</time>
   </trkpt>
   <trkpt lat="53.8515730" lon="-2.3692750">
    <ele>134.7</ele>
    <time>2016-08-27T13:06:41Z</time>
   </trkpt>
   <trkpt lat="53.8514600" lon="-2.3690630">
    <ele>135.3</ele>
    <time>2016-08-27T13:06:46Z</time>
   </trkpt>
   <trkpt lat="53.8513630" lon="-2.3688890">
    <ele>135.7</ele>
    <time>2016-08-27T13:06:50Z</time>
   </trkpt>
   <trkpt lat="53.8512390" lon="-2.3687590">
    <ele>136.0</ele>
    <time>2016-08-27T13:06:54Z</time>
   </trkpt>
   <trkpt lat="53.8511470" lon="-2.3686420">
    <ele>136.6</ele>
    <time>2016-08-27T13:06:58Z</time>
   </trkpt>
   <trkpt lat="53.8510590" lon="-2.3684390">
    <ele>137.3</ele>
    <time>2016-08-27T13:07:03Z</time>
   </trkpt>
   <trkpt lat="53.8509870" lon="-2.3682410">
    <ele>137.9</ele>
    <time>2016-08-27T13:07:08Z</time>
   </trkpt>
   <trkpt lat="53.8509300" lon="-2.3680450">
    <ele>138.4</ele>
    <time>2016-08-27T13:07:13Z</time>
   </trkpt>
   <trkpt lat="53.8509130" lon="-2.3680100">
    <ele>138.5</ele>
    <time>2016-08-27T13:07:14Z</time>
   </trkpt>
   <trkpt lat="53.8508220" lon="-2.3678410">
    <ele>139.2</ele>
    <time>2016-08-27T13:07:19Z</time>
   </trkpt>
   <trkpt lat="53.8507540" lon="-2.3676590">
    <ele>139.8</ele>
    <time>2016-08-27T13:07:24Z</time>
   </trkpt>
   <trkpt lat="53.8506750" lon="-2.3674060">
    <ele>140.6</ele>
    <time>2016-08-27T13:07:30Z</time>
   </trkpt>
   <trkpt lat="53.8505700" lon="-2.3671460">
    <ele>141.4</ele>
    <time>2016-08-27T13:07:36Z</time>
   </trkpt>
   <trkpt lat="53.8504590" lon="-2.3668990">
    <ele>142.3</ele>
    <time>2016-08-27T13:07:43Z</time>
   </trkpt>
   <trkpt lat="53.8504590" lon="-2.3668990">
    <ele>142.3</ele>
    <time>2016-08-27T13:07:47Z</time>
   </trkpt>
   <trkpt lat="53.8502930" lon="-2.3665000">
    <ele>144.3</ele>
    <time>2016-08-27T13:07:54Z</time>
   </trkpt>
   <trkpt lat="53.8502390" lon="-2.3663490">
    <ele>145.0</ele>
    <time>2016-08-27T13:07:59Z</time>
   </trkpt>
   <trkpt lat="53.8501610" lon="-2.3661500">
    <ele>146.2</ele>
    <time>2016-08-27T13:08:06Z</time>
   </trkpt>
   <trkpt lat="53.8500750" lon="-2.3659340">
    <ele>147.4</ele>
    <time>2016-08-27T13:08:13Z</time>
   </trkpt>
   <trkpt lat="53.8500100" lon="-2.3657750">
    <ele>148.1</ele>
    <time>2016-08-27T13:08:18Z</time>
   </trkpt>
   <trkpt lat="53.8499570" lon="-2.3656320">
    <ele>148.6</ele>
    <time>2016-08-27T13:08:23Z</time>
   </trkpt>
   <trkpt lat="53.8498990" lon="-2.3654520">
    <ele>149.2</ele>
    <time>2016-08-27T13:08:28Z</time>
   </trkpt>
   <trkpt lat="53.8498470" lon="-2.3652520">
    <ele>149.8</ele>
    <time>2016-08-27T13:08:33Z</time>
   </trkpt>
   <trkpt lat="53.8498010" lon="-2.3650150">
    <ele>150.3</ele>
    <time>2016-08-27T13:08:39Z</time>
   </trkpt>
   <trkpt lat="53.8497450" lon="-2.3647760">
    <ele>150.8</ele>
    <time>2016-08-27T13:08:45Z</time>
   </trkpt>
   <trkpt lat="53.8497450" lon="-2.3647760">
    <ele>150.8</ele>
    <time>2016-08-27T13:08:51Z</time>
   </trkpt>
   <trkpt lat="53.8496290" lon="-2.3642940">
    <ele>152.1</ele>
    <time>2016-08-27T13:08:57Z</time>
   </trkpt>
   <trkpt lat="53.8495660" lon="-2.3640770">
    <ele>152.9</ele>
    <time>2016-08-27T13:09:03Z</time>
   </trkpt>
   <trkpt lat="53.8495120" lon="-2.3638580">
    <ele>154.0</ele>
    <time>2016-08-27T13:09:09Z</time>
   </trkpt>
   <trkpt lat="53.8494640" lon="-2.3636310">
    <ele>155.1</ele>
    <time>2016-08-27T13:09:15Z</time>
   </trkpt>
   <trkpt lat="53.8493880" lon="-2.3633830">
    <ele>156.4</ele>
    <time>2016-08-27T13:09:22Z</time>
   </trkpt>
   <trkpt lat="53.8493440" lon="-2.3632420">
    <ele>157.1</ele>
    <time>2016-08-27T13:09:26Z</time>
   </trkpt>
   <trkpt lat="53.8492800" lon="-2.3630370">
    <ele>157.9</ele>
    <time>2016-08-27T13:09:32Z</time>
   </trkpt>
   <trkpt lat="53.8492250" lon="-2.3628730">
    <ele>158.6</ele>
    <time>2016-08-27T13:09:37Z</time>
   </trkpt>
   <trkpt lat="53.8491750" lon="-2.3626970">
    <ele>159.5</ele>
    <time>2016-08-27T13:09:43Z</time>
   </trkpt>
   <trkpt lat="53.8491240" lon="-2.3625130">
    <ele>160.4</ele>
    <time>2016-08-27T13:09:48Z</time>
   </trkpt>
   <trkpt lat="53.8490470" lon="-2.3622290">
    <ele>161.7</ele>
    <time>2016-08-27T13:09:57Z</time>
   </trkpt>
   <trkpt lat="53.8490000" lon="-2.3620250">
    <ele>162.6</ele>
    <time>2016-08-27T13:10:03Z</time>
   </trkpt>
   <trkpt lat="53.8489480" lon="-2.3617360">
    <ele>163.8</ele>
    <time>2016-08-27T13:10:11Z</time>
   </trkpt>
   <trkpt lat="53.8489280" lon="-2.3615240">
    <ele>164.7</ele>
    <time>2016-08-27T13:10:17Z</time>
   </trkpt>
   <trkpt lat="53.8488960" lon="-2.3612780">
    <ele>165.6</ele>
    <time>2016-08-27T13:10:24Z</time>
   </trkpt>
   <trkpt lat="53.8488820" lon="-2.3610960">
    <ele>166.3</ele>
    <time>2016-08-27T13:10:29Z</time>
   </trkpt>
   <trkpt lat="53.8488510" lon="-2.3608640">
    <ele>167.0</ele>
    <time>2016-08-27T13:10:35Z</time>
   </trkpt>
   <trkpt lat="53.8488510" lon="-2.3608640">
    <ele>167.0</ele>
    <time>2016-08-27T13:10:38Z</time>
   </trkpt>
   <trkpt lat="53.8488150" lon="-2.3604840">
    <ele>168.3</ele>
    <time>2016-08-27T13:10:46Z</time>
   </trkpt>
   <trkpt lat="53.8487800" lon="-2.3602430">
    <ele>168.9</ele>
    <time>2016-08-27T13:10:53Z</time>
   </trkpt>
   <trkpt lat="53.8487590" lon="-2.3600730">
    <ele>169.3</ele>
    <time>2016-08-27T13:10:58Z</time>
   </trkpt>
   <trkpt lat="53.8487230" lon="-2.3598390">
    <ele>170.3</ele>
    <time>2016-08-27T13:11:05Z</time>
   </trkpt>
   <trkpt lat="53.8487000" lon="-2.3596220">
    <ele>171.3</ele>
    <time>2016-08-27T13:11:11Z</time>
   </trkpt>
   <trkpt lat="53.8486780" lon="-2.3593820">
    <ele>172.9</ele>
    <time>2016-08-27T13:11:18Z</time>
   </trkpt>
   <trkpt lat="53.8486370" lon="-2.3592150">
    <ele>174.2</ele>
    <time>2016-08-27T13:11:23Z</time>
   </trkpt>
   <trkpt lat="53.8486000" lon="-2.3590230">
    <ele>175.4</ele>
    <time>2016-08-27T13:11:29Z</time>
   </trkpt>
   <trkpt lat="53.8485730" lon="-2.3588240">
    <ele>176.6</ele>
    <time>2016-08-27T13:11:35Z</time>
   </trkpt>
   <trkpt lat="53.8485550" lon="-2.3586400">
    <ele>177.7</ele>
    <time>2016-08-27T13:11:41Z</time>
   </trkpt>
   <trkpt lat="53.8485420" lon="-2.3584550">
    <ele>178.8</ele>
    <time>2016-08-27T13:11:47Z</time>
   </trkpt>
   <trkpt lat="53.8485400" lon="-2.3583920">
    <ele>179.1</ele>
    <time>2016-08-27T13:11:49Z</time>
   </trkpt>
   <trkpt lat="53.8485290" lon="-2.3581400">
    <ele>180.6</ele>
    <time>2016-08-27T13:11:56Z</time>
   </trkpt>
   <trkpt lat="53.8485300" lon="-2.3578440">
    <ele>182.2</ele>
    <time>2016-08-27T13:12:03Z</time>
   </trkpt>
   <trkpt lat="53.8485180" lon="-2.3576590">
    <ele>182.9</ele>
    <time>2016-08-27T13:12:08Z</time>
   </trkpt>
   <trkpt lat="53.8485030" lon="-2.3576020">
    <ele>183.1</ele>
    <time>2016-08-27T13:12:10Z</time>
   </trkpt>
   <trkpt lat="53.8485040" lon="-2.3574360">
    <ele>183.8</ele>
    <time>2016-08-27T13:12:15Z</time>
   </trkpt>
   <trkpt lat="53.8485060" lon="-2.3574020">
    <ele>184.0</ele>
    <time>2016-08-27T13:12:16Z</time>
   </trkpt>
   <trkpt lat="53.8485210" lon="-2.3572780">
    <ele>184.6</ele>
    <time>2016-08-27T13:12:21Z</time>
   </trkpt>
   <trkpt lat="53.8485200" lon="-2.3571570">
    <ele>185.1</ele>
    <time>2016-08-27T13:12:25Z</time>
   </trkpt>
   <trkpt lat="53.8484960" lon="-2.3569780">
    <ele>185.9</ele>
    <time>2016-08-27T13:12:29Z</time>
   </trkpt>
   <trkpt lat="53.8485010" lon="-2.3569430">
    <ele>186.1</ele>
    <time>2016-08-27T13:12:30Z</time>
   </trkpt>
   <trkpt lat="53.8485100" lon="-2.3568710">
    <ele>186.4</ele>
    <time>2016-08-27T13:12:35Z</time>
   </trkpt>
   <trkpt lat="53.8485120" lon="-2.3568610">
    <ele>186.5</ele>
    <time>2016-08-27T13:12:36Z</time>
   </trkpt>
   <trkpt lat="53.8485110" lon="-2.3567780">
    <ele>186.9</ele>
    <time>2016-08-27T13:12:43Z</time>
   </trkpt>
   <trkpt lat="53.8485170" lon="-2.3566830">
    <ele>187.3</ele>
    <time>2016-08-27T13:12:52Z</time>
   </trkpt>
   <trkpt lat="53.8485370" lon="-2.3566280">
    <ele>187.6</ele>
    <time>2016-08-27T13:12:57Z</time>
   </trkpt>
   <trkpt lat="53.8485330" lon="-2.3565830">
    <ele>187.8</ele>
    <time>2016-08-27T13:13:02Z</time>
   </trkpt>
   <trkpt lat="53.8485370" lon="-2.3565380">
    <ele>188.0</ele>
    <time>2016-08-27T13:13:08Z</time>
   </trkpt>
   <trkpt lat="53.8485460" lon="-2.3564890">
    <ele>188.2</ele>
    <time>2016-08-27T13:13:14Z</time>
   </trkpt>
   <trkpt lat="53.8485570" lon="-2.3564580">
    <ele>188.3</ele>
    <time>2016-08-27T13:13:19Z</time>
   </trkpt>
   <trkpt lat="53.8485630" lon="-2.3564210">
    <ele>188.4</ele>
    <time>2016-08-27T13:13:25Z</time>
   </trkpt>
   <trkpt lat="53.8485600" lon="-2.3563530">
    <ele>188.7</ele>
    <time>2016-08-27T13:13:32Z</time>
   </trkpt>
   <trkpt lat="53.8485620" lon="-2.3563130">
    <ele>188.9</ele>
    <time>2016-08-27T13:13:37Z</time>
   </trkpt>
   <trkpt lat="53.8485480" lon="-2.3562630">
    <ele>189.2</ele>
    <time>2016-08-27T13:13:43Z</time>
   </trkpt>
   <trkpt lat="53.8485650" lon="-2.3561720">
    <ele>189.9</ele>
    <time>2016-08-27T13:13:50Z</time>
   </trkpt>
   <trkpt lat="53.8485650" lon="-2.3561720">
    <ele>189.9</ele>
    <time>2016-08-27T13:13:53Z</time>
   </trkpt>
   <trkpt lat="53.8485610" lon="-2.3559590">
    <ele>192.2</ele>
    <time>2016-08-27T13:13:59Z</time>
   </trkpt>
   <trkpt lat="53.8485610" lon="-2.3559590">
    <ele>192.2</ele>
    <time>2016-08-27T13:14:05Z</time>
   </trkpt>
   <trkpt lat="53.8485320" lon="-2.3555730">
    <ele>196.4</ele>
    <time>2016-08-27T13:14:12Z</time>
   </trkpt>
   <trkpt lat="53.8485470" lon="-2.3554020">
    <ele>198.1</ele>
    <time>2016-08-27T13:14:18Z</time>
   </trkpt>
   <trkpt lat="53.8485440" lon="-2.3551420">
    <ele>201.2</ele>
    <time>2016-08-27T13:14:28Z</time>
   </trkpt>
   <trkpt lat="53.8485510" lon="-2.3549660">
    <ele>203.2</ele>
    <time>2016-08-27T13:14:35Z</time>
   </trkpt>
   <trkpt lat="53.8485410" lon="-2.3547930">
    <ele>205.3</ele>
    <time>2016-08-27T13:14:42Z</time>
   </trkpt>
   <trkpt lat="53.8485360" lon="-2.3547730">
    <ele>205.6</ele>
    <time>2016-08-27T13:14:43Z</time>
   </trkpt>
   <trkpt lat="53.8485470" lon="-2.3546100">
    <ele>207.4</ele>
    <time>2016-08-27T13:14:50Z</time>
   </trkpt>
   <trkpt lat="53.8485500" lon="-2.3544610">
    <ele>208.6</ele>
    <time>2016-08-27T13:14:57Z</time>
   </trkpt>
   <trkpt lat="53.8485500" lon="-2.3542870">
    <ele>209.9</ele>
    <time>2016-08-27T13:15:06Z</time>
   </trkpt>
   <trkpt lat="53.8485520" lon="-2.3541240">
    <ele>211.0</ele>
    <time>2016-08-27T13:15:13Z</time>
   </trkpt>
   <trkpt lat="53.8485530" lon="-2.3540880">
    <ele>211.3</ele>
    <time>2016-08-27T13:15:15Z</time>
   </trkpt>
   <trkpt lat="53.8485610" lon="-2.3539840">
    <ele>212.0</ele>
    <time>2016-08-27T13:15:21Z</time>
   </trkpt>
   <trkpt lat="53.8485600" lon="-2.3537770">
    <ele>213.5</ele>
    <time>2016-08-27T13:15:29Z</time>
   </trkpt>
   <trkpt lat="53.8485550" lon="-2.3537440">
    <ele>213.8</ele>
    <time>2016-08-27T13:15:30Z</time>
   </trkpt>
   <trkpt lat="53.8485610" lon="-2.3536060">
    <ele>214.9</ele>
    <time>2016-08-27T13:15:34Z</time>
   </trkpt>
   <trkpt lat="53.8485700" lon="-2.3535110">
    <ele>215.7</ele>
    <time>2016-08-27T13:15:38Z</time>
   </trkpt>
   <trkpt lat="53.8485730" lon="-2.3534960">
    <ele>215.8</ele>
    <time>2016-08-27T13:15:39Z</time>
   </trkpt>
   <trkpt lat="53.8485730" lon="-2.3532360">
    <ele>218.0</ele>
    <time>2016-08-27T13:15:49Z</time>
   </trkpt>
   <trkpt lat="53.8485870" lon="-2.3530780">
    <ele>219.2</ele>
    <time>2016-08-27T13:15:56Z</time>
   </trkpt>
   <trkpt lat="53.8486010" lon="-2.3529290">
    <ele>220.4</ele>
    <time>2016-08-27T13:16:03Z</time>
   </trkpt>
   <trkpt lat="53.8485990" lon="-2.3529070">
    <ele>220.6</ele>
    <time>2016-08-27T13:16:04Z</time>
   </trkpt>
   <trkpt lat="53.8486020" lon="-2.3527890">
    <ele>221.7</ele>
    <time>2016-08-27T13:16:09Z</time>
   </trkpt>
   <trkpt lat="53.8486080" lon="-2.3526240">
    <ele>223.1</ele>
    <time>2016-08-27T13:16:16Z</time>
   </trkpt>
   <trkpt lat="53.8486150" lon="-2.3525400">
    <ele>223.9</ele>
    <time>2016-08-27T13:16:20Z</time>
   </trkpt>
   <trkpt lat="53.8486160" lon="-2.3523850">
    <ele>225.3</ele>
    <time>2016-08-27T13:16:27Z</time>
   </trkpt>
   <trkpt lat="53.8486310" lon="-2.3521840">
    <ele>227.1</ele>
    <time>2016-08-27T13:16:36Z</time>
   </trkpt>
   <trkpt lat="53.8486310" lon="-2.3521840">
    <ele>227.1</ele>
    <time>2016-08-27T13:16:41Z</time>
   </trkpt>
   <trkpt lat="53.8486600" lon="-2.3520140">
    <ele>228.6</ele>
    <time>2016-08-27T13:16:44Z</time>
   </trkpt>
   <trkpt lat="53.8486550" lon="-2.3518800">
    <ele>229.9</ele>
    <time>2016-08-27T13:16:51Z</time>
   </trkpt>
   <trkpt lat="53.8486730" lon="-2.3517880">
    <ele>230.8</ele>
    <time>2016-08-27T13:16:55Z</time>
   </trkpt>
   <trkpt lat="53.8486800" lon="-2.3517300">
    <ele>231.3</ele>
    <time>2016-08-27T13:16:58Z</time>
   </trkpt>
   <trkpt lat="53.8486740" lon="-2.3515950">
    <ele>232.6</ele>
    <time>2016-08-27T13:17:04Z</time>
   </trkpt>
   <trkpt lat="53.8486870" lon="-2.3514780">
    <ele>233.7</ele>
    <time>2016-08-27T13:17:09Z</time>
   </trkpt>
   <trkpt lat="53.8487160" lon="-2.3513700">
    <ele>234.8</ele>
    <time>2016-08-27T13:17:15Z</time>
   </trkpt>
   <trkpt lat="53.8487380" lon="-2.3512250">
    <ele>236.1</ele>
    <time>2016-08-27T13:17:22Z</time>
   </trkpt>
   <trkpt lat="53.8487510" lon="-2.3511590">
    <ele>236.5</ele>
    <time>2016-08-27T13:17:25Z</time>
   </trkpt>
   <trkpt lat="53.8487840" lon="-2.3509760">
    <ele>237.6</ele>
    <time>2016-08-27T13:17:33Z</time>
   </trkpt>
   <trkpt lat="53.8487760" lon="-2.3509020">
    <ele>238.1</ele>
    <time>2016-08-27T13:17:36Z</time>
   </trkpt>
   <trkpt lat="53.8487840" lon="-2.3506810">
    <ele>239.4</ele>
    <time>2016-08-27T13:17:45Z</time>
   </trkpt>
   <trkpt lat="53.8487840" lon="-2.3506810">
    <ele>239.4</ele>
    <time>2016-08-27T13:17:51Z</time>
   </trkpt>
   <trkpt lat="53.8487980" lon="-2.3503440">
    <ele>241.5</ele>
    <time>2016-08-27T13:17:58Z</time>
   </trkpt>
   <trkpt lat="53.8487800" lon="-2.3501420">
    <ele>242.9</ele>
    <time>2016-08-27T13:18:04Z</time>
   </trkpt>
   <trkpt lat="53.8487940" lon="-2.3499460">
    <ele>244.3</ele>
    <time>2016-08-27T13:18:10Z</time>
   </trkpt>
   <trkpt lat="53.8487950" lon="-2.3497470">
    <ele>245.8</ele>
    <time>2016-08-27T13:18:16Z</time>
   </trkpt>
   <trkpt lat="53.8487960" lon="-2.3497120">
    <ele>246.0</ele>
    <time>2016-08-27T13:18:17Z</time>
   </trkpt>
   <trkpt lat="53.8488410" lon="-2.3495340">
    <ele>247.3</ele>
    <time>2016-08-27T13:18:24Z</time>
   </trkpt>
   <trkpt lat="53.8488420" lon="-2.3494850">
    <ele>247.6</ele>
    <time>2016-08-27T13:18:26Z</time>
   </trkpt>
   <trkpt lat="53.8488440" lon="-2.3492990">
    <ele>249.0</ele>
    <time>2016-08-27T13:18:32Z</time>
   </trkpt>
   <trkpt lat="53.8488360" lon="-2.3491510">
    <ele>250.1</ele>
    <time>2016-08-27T13:18:37Z</time>
   </trkpt>
   <trkpt lat="53.8488270" lon="-2.3488950">
    <ele>251.9</ele>
    <time>2016-08-27T13:18:43Z</time>
   </trkpt>
   <trkpt lat="53.8488380" lon="-2.3486700">
    <ele>253.6</ele>
    <time>2016-08-27T13:18:48Z</time>
   </trkpt>
   <trkpt lat="53.8488590" lon="-2.3485360">
    <ele>254.6</ele>
    <time>2016-08-27T13:18:53Z</time>
   </trkpt>
   <trkpt lat="53.8488890" lon="-2.3483070">
    <ele>256.3</ele>
    <time>2016-08-27T13:19:04Z</time>
   </trkpt>
   <trkpt lat="53.8489160" lon="-2.3480770">
    <ele>258.0</ele>
    <time>2016-08-27T13:19:14Z</time>
   </trkpt>
   <trkpt lat="53.8489450" lon="-2.3479740">
    <ele>258.8</ele>
    <time>2016-08-27T13:19:19Z</time>
   </trkpt>
   <trkpt lat="53.8489590" lon="-2.3478880">
    <ele>259.6</ele>
    <time>2016-08-27T13:19:23Z</time>
   </trkpt>
   <trkpt lat="53.8490330" lon="-2.3476920">
    <ele>262.0</ele>
    <time>2016-08-27T13:19:33Z</time>
   </trkpt>
   <trkpt lat="53.8490330" lon="-2.3476920">
    <ele>262.0</ele>
    <time>2016-08-27T13:19:40Z</time>
   </trkpt>
   <trkpt lat="53.8490330" lon="-2.3476920">
    <ele>262.0</ele>
    <time>2016-08-27T13:19:52Z</time>
   </trkpt>
   <trkpt lat="53.8492260" lon="-2.3471830">
    <ele>268.4</ele>
    <time>2016-08-27T13:20:00Z</time>
   </trkpt>
   <trkpt lat="53.8492490" lon="-2.3470280">
    <ele>270.3</ele>
    <time>2016-08-27T13:20:07Z</time>
   </trkpt>
   <trkpt lat="53.8492330" lon="-2.3468940">
    <ele>271.9</ele>
    <time>2016-08-27T13:20:13Z</time>
   </trkpt>
   <trkpt lat="53.8492360" lon="-2.3467670">
    <ele>273.5</ele>
    <time>2016-08-27T13:20:19Z</time>
   </trkpt>
   <trkpt lat="53.8491920" lon="-2.3466200">
    <ele>275.4</ele>
    <time>2016-08-27T13:20:26Z</time>
   </trkpt>
   <trkpt lat="53.8491580" lon="-2.3464650">
    <ele>277.3</ele>
    <time>2016-08-27T13:20:33Z</time>
   </trkpt>
   <trkpt lat="53.8491200" lon="-2.3463240">
    <ele>279.1</ele>
    <time>2016-08-27T13:20:40Z</time>
   </trkpt>
   <trkpt lat="53.8491200" lon="-2.3463240">
    <ele>279.1</ele>
    <time>2016-08-27T13:20:43Z</time>
   </trkpt>
   <trkpt lat="53.8491200" lon="-2.3463240">
    <ele>279.1</ele>
    <time>2016-08-27T13:20:52Z</time>
   </trkpt>
   <trkpt lat="53.8491200" lon="-2.3463240">
    <ele>279.1</ele>
    <time>2016-08-27T13:20:53Z</time>
   </trkpt>
   <trkpt lat="53.8491190" lon="-2.3459130">
    <ele>282.8</ele>
    <time>2016-08-27T13:21:01Z</time>
   </trkpt>
   <trkpt lat="53.8491120" lon="-2.3457450">
    <ele>284.2</ele>
    <time>2016-08-27T13:21:09Z</time>
   </trkpt>
   <trkpt lat="53.8491200" lon="-2.3455350">
    <ele>286.0</ele>
    <time>2016-08-27T13:21:17Z</time>
   </trkpt>
   <trkpt lat="53.8491290" lon="-2.3453650">
    <ele>287.5</ele>
    <time>2016-08-27T13:21:24Z</time>
   </trkpt>
   <trkpt lat="53.8491250" lon="-2.3452100">
    <ele>289.0</ele>
    <time>2016-08-27T13:21:31Z</time>
   </trkpt>
   <trkpt lat="53.8491250" lon="-2.3452100">
    <ele>289.0</ele>
    <time>2016-08-27T13:21:41Z</time>
   </trkpt>
   <trkpt lat="53.8491390" lon="-2.3449700">
    <ele>291.3</ele>
    <time>2016-08-27T13:21:42Z</time>
   </trkpt>
   <trkpt lat="53.8491290" lon="-2.3449050">
    <ele>291.9</ele>
    <time>2016-08-27T13:21:45Z</time>
   </trkpt>
   <trkpt lat="53.8491290" lon="-2.3449050">
    <ele>291.9</ele>
    <time>2016-08-27T13:21:50Z</time>
   </trkpt>
   <trkpt lat="53.8491500" lon="-2.3445710">
    <ele>295.1</ele>
    <time>2016-08-27T13:21:59Z</time>
   </trkpt>
   <trkpt lat="53.8491660" lon="-2.3443740">
    <ele>297.1</ele>
    <time>2016-08-27T13:22:06Z</time>
   </trkpt>
   <trkpt lat="53.8492000" lon="-2.3441310">
    <ele>299.6</ele>
    <time>2016-08-27T13:22:13Z</time>
   </trkpt>
   <trkpt lat="53.8492310" lon="-2.3439120">
    <ele>301.9</ele>
    <time>2016-08-27T13:22:22Z</time>
   </trkpt>
   <trkpt lat="53.8492370" lon="-2.3438890">
    <ele>302.2</ele>
    <time>2016-08-27T13:22:23Z</time>
   </trkpt>
   <trkpt lat="53.8492460" lon="-2.3436990">
    <ele>304.1</ele>
    <time>2016-08-27T13:22:31Z</time>
   </trkpt>
   <trkpt lat="53.8492090" lon="-2.3435480">
    <ele>305.6</ele>
    <time>2016-08-27T13:22:38Z</time>
   </trkpt>
   <trkpt lat="53.8492130" lon="-2.3433640">
    <ele>307.5</ele>
    <time>2016-08-27T13:22:46Z</time>
   </trkpt>
   <trkpt lat="53.8492130" lon="-2.3433640">
    <ele>307.5</ele>
    <time>2016-08-27T13:22:51Z</time>
   </trkpt>
   <trkpt lat="53.8491980" lon="-2.3431190">
    <ele>310.0</ele>
    <time>2016-08-27T13:22:58Z</time>
   </trkpt>
   <trkpt lat="53.8491870" lon="-2.3429100">
    <ele>312.1</ele>
    <time>2016-08-27T13:23:06Z</time>
   </trkpt>
   <trkpt lat="53.8491870" lon="-2.3427210">
    <ele>314.4</ele>
    <time>2016-08-27T13:23:13Z</time>
   </trkpt>
   <trkpt lat="53.8491950" lon="-2.3424670">
    <ele>317.5</ele>
    <time>2016-08-27T13:23:23Z</time>
   </trkpt>
   <trkpt lat="53.8491870" lon="-2.3424230">
    <ele>318.0</ele>
    <time>2016-08-27T13:23:25Z</time>
   </trkpt>
   <trkpt lat="53.8492120" lon="-2.3422020">
    <ele>320.7</ele>
    <time>2016-08-27T13:23:31Z</time>
   </trkpt>
   <trkpt lat="53.8492210" lon="-2.3421370">
    <ele>321.5</ele>
    <time>2016-08-27T13:23:33Z</time>
   </trkpt>
   <trkpt lat="53.8492140" lon="-2.3419130">
    <ele>324.2</ele>
    <time>2016-08-27T13:23:42Z</time>
   </trkpt>
   <trkpt lat="53.8492620" lon="-2.3416750">
    <ele>327.1</ele>
    <time>2016-08-27T13:23:52Z</time>
   </trkpt>
   <trkpt lat="53.8492620" lon="-2.3416750">
    <ele>327.1</ele>
    <time>2016-08-27T13:24:00Z</time>
   </trkpt>
   <trkpt lat="53.8493170" lon="-2.3414940">
    <ele>329.4</ele>
    <time>2016-08-27T13:24:01Z</time>
   </trkpt>
   <trkpt lat="53.8493830" lon="-2.3413550">
    <ele>331.3</ele>
    <time>2016-08-27T13:24:06Z</time>
   </trkpt>
   <trkpt lat="53.8494190" lon="-2.3411990">
    <ele>333.2</ele>
    <time>2016-08-27T13:24:12Z</time>
   </trkpt>
   <trkpt lat="53.8494470" lon="-2.3409580">
    <ele>335.8</ele>
    <time>2016-08-27T13:24:22Z</time>
   </trkpt>
   <trkpt lat="53.8494790" lon="-2.3407510">
    <ele>338.1</ele>
    <time>2016-08-27T13:24:31Z</time>
   </trkpt>
   <trkpt lat="53.8495240" lon="-2.3405960">
    <ele>339.9</ele>
    <time>2016-08-27T13:24:38Z</time>
   </trkpt>
   <trkpt lat="53.8495800" lon="-2.3404150">
    <ele>342.0</ele>
    <time>2016-08-27T13:24:46Z</time>
   </trkpt>
   <trkpt lat="53.8496420" lon="-2.3402330">
    <ele>343.5</ele>
    <time>2016-08-27T13:24:54Z</time>
   </trkpt>
   <trkpt lat="53.8497100" lon="-2.3400570">
    <ele>344.9</ele>
    <time>2016-08-27T13:25:02Z</time>
   </trkpt>
   <trkpt lat="53.8497060" lon="-2.3399290">
    <ele>346.3</ele>
    <time>2016-08-27T13:25:08Z</time>
   </trkpt>
   <trkpt lat="53.8497020" lon="-2.3397570">
    <ele>348.2</ele>
    <time>2016-08-27T13:25:15Z</time>
   </trkpt>
   <trkpt lat="53.8497080" lon="-2.3395780">
    <ele>350.2</ele>
    <time>2016-08-27T13:25:23Z</time>
   </trkpt>
   <trkpt lat="53.8497000" lon="-2.3394060">
    <ele>352.0</ele>
    <time>2016-08-27T13:25:30Z</time>
   </trkpt>
   <trkpt lat="53.8497130" lon="-2.3393300">
    <ele>352.6</ele>
    <time>2016-08-27T13:25:32Z</time>
   </trkpt>
   <trkpt lat="53.8497130" lon="-2.3393300">
    <ele>352.6</ele>
    <time>2016-08-27T13:25:42Z</time>
   </trkpt>
   <trkpt lat="53.8497330" lon="-2.3389050">
    <ele>356.9</ele>
    <time>2016-08-27T13:25:53Z</time>
   </trkpt>
   <trkpt lat="53.8497540" lon="-2.3387600">
    <ele>358.3</ele>
    <time>2016-08-27T13:26:00Z</time>
   </trkpt>
   <trkpt lat="53.8497770" lon="-2.3385890">
    <ele>360.2</ele>
    <time>2016-08-27T13:26:09Z</time>
   </trkpt>
   <trkpt lat="53.8497930" lon="-2.3384370">
    <ele>361.9</ele>
    <time>2016-08-27T13:26:17Z</time>
   </trkpt>
   <trkpt lat="53.8497900" lon="-2.3383400">
    <ele>363.1</ele>
    <time>2016-08-27T13:26:24Z</time>
   </trkpt>
   <trkpt lat="53.8497940" lon="-2.3382300">
    <ele>364.3</ele>
    <time>2016-08-27T13:26:34Z</time>
   </trkpt>
   <trkpt lat="53.8497900" lon="-2.3381430">
    <ele>365.4</ele>
    <time>2016-08-27T13:26:43Z</time>
   </trkpt>
   <trkpt lat="53.8497900" lon="-2.3381430">
    <ele>365.4</ele>
    <time>2016-08-27T13:26:52Z</time>
   </trkpt>
   <trkpt lat="53.8498240" lon="-2.3378070">
    <ele>368.2</ele>
    <time>2016-08-27T13:27:00Z</time>
   </trkpt>
   <trkpt lat="53.8498610" lon="-2.3376490">
    <ele>368.5</ele>
    <time>2016-08-27T13:27:07Z</time>
   </trkpt>
   <trkpt lat="53.8499160" lon="-2.3374470">
    <ele>369.1</ele>
    <time>2016-08-27T13:27:15Z</time>
   </trkpt>
   <trkpt lat="53.8499590" lon="-2.3373000">
    <ele>369.7</ele>
    <time>2016-08-27T13:27:19Z</time>
   </trkpt>
   <trkpt lat="53.8500780" lon="-2.3372350">
    <ele>370.4</ele>
    <time>2016-08-27T13:27:24Z</time>
   </trkpt>
   <trkpt lat="53.8502730" lon="-2.3371740">
    <ele>371.7</ele>
    <time>2016-08-27T13:27:30Z</time>
   </trkpt>
   <trkpt lat="53.8504240" lon="-2.3371230">
    <ele>372.7</ele>
    <time>2016-08-27T13:27:35Z</time>
   </trkpt>
   <trkpt lat="53.8506140" lon="-2.3370620">
    <ele>371.8</ele>
    <time>2016-08-27T13:27:42Z</time>
   </trkpt>
   <trkpt lat="53.8508030" lon="-2.3369700">
    <ele>371.3</ele>
    <time>2016-08-27T13:27:48Z</time>
   </trkpt>
   <trkpt lat="53.8509670" lon="-2.3369140">
    <ele>370.8</ele>
    <time>2016-08-27T13:27:53Z</time>
   </trkpt>
   <trkpt lat="53.8511150" lon="-2.3368010">
    <ele>371.1</ele>
    <time>2016-08-27T13:27:58Z</time>
   </trkpt>
   <trkpt lat="53.8512930" lon="-2.3366530">
    <ele>371.1</ele>
    <time>2016-08-27T13:28:04Z</time>
   </trkpt>
   <trkpt lat="53.8514440" lon="-2.3365050">
    <ele>369.1</ele>
    <time>2016-08-27T13:28:10Z</time>
   </trkpt>
   <trkpt lat="53.8514690" lon="-2.3364780">
    <ele>368.9</ele>
    <time>2016-08-27T13:28:11Z</time>
   </trkpt>
   <trkpt lat="53.8516070" lon="-2.3363510">
    <ele>367.1</ele>
    <time>2016-08-27T13:28:17Z</time>
   </trkpt>
   <trkpt lat="53.8517150" lon="-2.3362420">
    <ele>365.9</ele>
    <time>2016-08-27T13:28:22Z</time>
   </trkpt>
   <trkpt lat="53.8518270" lon="-2.3361780">
    <ele>364.0</ele>
    <time>2016-08-27T13:28:28Z</time>
   </trkpt>
   <trkpt lat="53.8518420" lon="-2.3361770">
    <ele>363.7</ele>
    <time>2016-08-27T13:28:29Z</time>
   </trkpt>
   <trkpt lat="53.8519580" lon="-2.3361040">
    <ele>361.9</ele>
    <time>2016-08-27T13:28:35Z</time>
   </trkpt>
   <trkpt lat="53.8520910" lon="-2.3360620">
    <ele>359.5</ele>
    <time>2016-08-27T13:28:40Z</time>
   </trkpt>
   <trkpt lat="53.8522310" lon="-2.3359960">
    <ele>356.5</ele>
    <time>2016-08-27T13:28:46Z</time>
   </trkpt>
   <trkpt lat="53.8523840" lon="-2.3359610">
    <ele>352.6</ele>
    <time>2016-08-27T13:28:51Z</time>
   </trkpt>
   <trkpt lat="53.8525050" lon="-2.3358980">
    <ele>350.1</ele>
    <time>2016-08-27T13:28:55Z</time>
   </trkpt>
   <trkpt lat="53.8526440" lon="-2.3358140">
    <ele>347.5</ele>
    <time>2016-08-27T13:29:00Z</time>
   </trkpt>
   <trkpt lat="53.8527860" lon="-2.3357040">
    <ele>345.2</ele>
    <time>2016-08-27T13:29:06Z</time>
   </trkpt>
   <trkpt lat="53.8529320" lon="-2.3355680">
    <ele>343.3</ele>
    <time>2016-08-27T13:29:12Z</time>
   </trkpt>
   <trkpt lat="53.8530780" lon="-2.3354810">
    <ele>341.8</ele>
    <time>2016-08-27T13:29:18Z</time>
   </trkpt>
   <trkpt lat="53.8531900" lon="-2.3354500">
    <ele>340.0</ele>
    <time>2016-08-27T13:29:23Z</time>
   </trkpt>
   <trkpt lat="53.8532880" lon="-2.3354440">
    <ele>338.1</ele>
    <time>2016-08-27T13:29:27Z</time>
   </trkpt>
   <trkpt lat="53.8533750" lon="-2.3354410">
    <ele>336.3</ele>
    <time>2016-08-27T13:29:32Z</time>
   </trkpt>
   <trkpt lat="53.8533750" lon="-2.3354410">
    <ele>336.3</ele>
    <time>2016-08-27T13:29:38Z</time>
   </trkpt>
   <trkpt lat="53.8534770" lon="-2.3353890">
    <ele>334.9</ele>
    <time>2016-08-27T13:29:41Z</time>
   </trkpt>
   <trkpt lat="53.8535240" lon="-2.3353900">
    <ele>334.0</ele>
    <time>2016-08-27T13:29:45Z</time>
   </trkpt>
   <trkpt lat="53.8535640" lon="-2.3353710">
    <ele>333.4</ele>
    <time>2016-08-27T13:29:48Z</time>
   </trkpt>
   <trkpt lat="53.8535800" lon="-2.3353130">
    <ele>333.8</ele>
    <time>2016-08-27T13:29:53Z</time>
   </trkpt>
   <trkpt lat="53.8535970" lon="-2.3352780">
    <ele>333.9</ele>
    <time>2016-08-27T13:29:59Z</time>
   </trkpt>
   <trkpt lat="53.8536020" lon="-2.3352020">
    <ele>334.8</ele>
    <time>2016-08-27T13:30:06Z</time>
   </trkpt>
   <trkpt lat="53.8536080" lon="-2.3351450">
    <ele>335.4</ele>
    <time>2016-08-27T13:30:11Z</time>
   </trkpt>
   <trkpt lat="53.8536390" lon="-2.3350860">
    <ele>335.4</ele>
    <time>2016-08-27T13:30:15Z</time>
   </trkpt>
   <trkpt lat="53.8536800" lon="-2.3349630">
    <ele>336.1</ele>
    <time>2016-08-27T13:30:20Z</time>
   </trkpt>
   <trkpt lat="53.8537090" lon="-2.3349140">
    <ele>336.0</ele>
    <time>2016-08-27T13:30:26Z</time>
   </trkpt>
   <trkpt lat="53.8537240" lon="-2.3349140">
    <ele>335.6</ele>
    <time>2016-08-27T13:30:28Z</time>
   </trkpt>
   <trkpt lat="53.8537360" lon="-2.3349140">
    <ele>335.4</ele>
    <time>2016-08-27T13:30:30Z</time>
   </trkpt>
   <trkpt lat="53.8537890" lon="-2.3348640">
    <ele>336.4</ele>
    <time>2016-08-27T13:30:38Z</time>
   </trkpt>
   <trkpt lat="53.8537890" lon="-2.3348640">
    <ele>336.4</ele>
    <time>2016-08-27T13:30:46Z</time>
   </trkpt>
   <trkpt lat="53.8539140" lon="-2.3347890">
    <ele>339.7</ele>
    <time>2016-08-27T13:30:52Z</time>
   </trkpt>
   <trkpt lat="53.8539540" lon="-2.3347440">
    <ele>341.0</ele>
    <time>2016-08-27T13:30:59Z</time>
   </trkpt>
   <trkpt lat="53.8539990" lon="-2.3347140">
    <ele>342.1</ele>
    <time>2016-08-27T13:31:06Z</time>
   </trkpt>
   <trkpt lat="53.8540370" lon="-2.3346800">
    <ele>343.2</ele>
    <time>2016-08-27T13:31:12Z</time>
   </trkpt>
   <trkpt lat="53.8540930" lon="-2.3346490">
    <ele>344.5</ele>
    <time>2016-08-27T13:31:20Z</time>
   </trkpt>
   <trkpt lat="53.8541690" lon="-2.3346350">
    <ele>346.1</ele>
    <time>2016-08-27T13:31:29Z</time>
   </trkpt>
   <trkpt lat="53.8542440" lon="-2.3346230">
    <ele>347.6</ele>
    <time>2016-08-27T13:31:37Z</time>
   </trkpt>
   <trkpt lat="53.8543290" lon="-2.3346200">
    <ele>349.1</ele>
    <time>2016-08-27T13:31:46Z</time>
   </trkpt>
   <trkpt lat="53.8543640" lon="-2.3345940">
    <ele>350.0</ele>
    <time>2016-08-27T13:31:52Z</time>
   </trkpt>
   <trkpt lat="53.8544160" lon="-2.3345800">
    <ele>351.0</ele>
    <time>2016-08-27T13:32:00Z</time>
   </trkpt>
   <trkpt lat="53.8544540" lon="-2.3345970">
    <ele>351.6</ele>
    <time>2016-08-27T13:32:07Z</time>
   </trkpt>
   <trkpt lat="53.8545190" lon="-2.3345950">
    <ele>352.8</ele>
    <time>2016-08-27T13:32:14Z</time>
   </trkpt>
   <trkpt lat="53.8546150" lon="-2.3346670">
    <ele>354.5</ele>
    <time>2016-08-27T13:32:20Z</time>
   </trkpt>
   <trkpt lat="53.8546920" lon="-2.3347130">
    <ele>356.8</ele>
    <time>2016-08-27T13:32:26Z</time>
   </trkpt>
   <trkpt lat="53.8547740" lon="-2.3347470">
    <ele>359.3</ele>
    <time>2016-08-27T13:32:35Z</time>
   </trkpt>
   <trkpt lat="53.8548700" lon="-2.3348100">
    <ele>362.1</ele>
    <time>2016-08-27T13:32:43Z</time>
   </trkpt>
   <trkpt lat="53.8549130" lon="-2.3348290">
    <ele>363.4</ele>
    <time>2016-08-27T13:32:45Z</time>
   </trkpt>
   <trkpt lat="53.8550280" lon="-2.3348520">
    <ele>367.1</ele>
    <time>2016-08-27T13:32:55Z</time>
   </trkpt>
   <trkpt lat="53.8551020" lon="-2.3348670">
    <ele>369.5</ele>
    <time>2016-08-27T13:33:04Z</time>
   </trkpt>
   <trkpt lat="53.8551970" lon="-2.3348900">
    <ele>372.6</ele>
    <time>2016-08-27T13:33:13Z</time>
   </trkpt>
   <trkpt lat="53.8552690" lon="-2.3349170">
    <ele>374.9</ele>
    <time>2016-08-27T13:33:17Z</time>
   </trkpt>
   <trkpt lat="53.8553310" lon="-2.3349260">
    <ele>376.9</ele>
    <time>2016-08-27T13:33:23Z</time>
   </trkpt>
   <trkpt lat="53.8554250" lon="-2.3349480">
    <ele>379.9</ele>
    <time>2016-08-27T13:33:33Z</time>
   </trkpt>
   <trkpt lat="53.8555200" lon="-2.3349690">
    <ele>382.8</ele>
    <time>2016-08-27T13:33:42Z</time>
   </trkpt>
   <trkpt lat="53.8556070" lon="-2.3349880">
    <ele>385.5</ele>
    <time>2016-08-27T13:33:51Z</time>
   </trkpt>
   <trkpt lat="53.8556710" lon="-2.3350110">
    <ele>387.4</ele>
    <time>2016-08-27T13:33:59Z</time>
   </trkpt>
   <trkpt lat="53.8557500" lon="-2.3350380">
    <ele>389.8</ele>
    <time>2016-08-27T13:34:09Z</time>
   </trkpt>
   <trkpt lat="53.8558360" lon="-2.3350550">
    <ele>392.5</ele>
    <time>2016-08-27T13:34:18Z</time>
   </trkpt>
   <trkpt lat="53.8559300" lon="-2.3350840">
    <ele>395.3</ele>
    <time>2016-08-27T13:34:27Z</time>
   </trkpt>
   <trkpt lat="53.8560170" lon="-2.3351400">
    <ele>398.0</ele>
    <time>2016-08-27T13:34:35Z</time>
   </trkpt>
   <trkpt lat="53.8561080" lon="-2.3351330">
    <ele>400.9</ele>
    <time>2016-08-27T13:34:44Z</time>
   </trkpt>
   <trkpt lat="53.8561870" lon="-2.3351080">
    <ele>403.4</ele>
    <time>2016-08-27T13:34:52Z</time>
   </trkpt>
   <trkpt lat="53.8562890" lon="-2.3350790">
    <ele>406.4</ele>
    <time>2016-08-27T13:35:02Z</time>
   </trkpt>
   <trkpt lat="53.8563860" lon="-2.3350310">
    <ele>409.0</ele>
    <time>2016-08-27T13:35:10Z</time>
   </trkpt>
   <trkpt lat="53.8564930" lon="-2.3349710">
    <ele>412.0</ele>
    <time>2016-08-27T13:35:18Z</time>
   </trkpt>
   <trkpt lat="53.8566370" lon="-2.3349070">
    <ele>415.9</ele>
    <time>2016-08-27T13:35:28Z</time>
   </trkpt>
   <trkpt lat="53.8567830" lon="-2.3348220">
    <ele>420.1</ele>
    <time>2016-08-27T13:35:38Z</time>
   </trkpt>
   <trkpt lat="53.8569030" lon="-2.3346870">
    <ele>423.7</ele>
    <time>2016-08-27T13:35:45Z</time>
   </trkpt>
   <trkpt lat="53.8569030" lon="-2.3346870">
    <ele>423.7</ele>
    <time>2016-08-27T13:35:52Z</time>
   </trkpt>
   <trkpt lat="53.8571330" lon="-2.3344610">
    <ele>430.3</ele>
    <time>2016-08-27T13:36:00Z</time>
   </trkpt>
   <trkpt lat="53.8572030" lon="-2.3343730">
    <ele>431.7</ele>
    <time>2016-08-27T13:36:05Z</time>
   </trkpt>
   <trkpt lat="53.8572830" lon="-2.3342980">
    <ele>433.1</ele>
    <time>2016-08-27T13:36:10Z</time>
   </trkpt>
   <trkpt lat="53.8573940" lon="-2.3341980">
    <ele>435.0</ele>
    <time>2016-08-27T13:36:17Z</time>
   </trkpt>
   <trkpt lat="53.8574980" lon="-2.3341210">
    <ele>436.6</ele>
    <time>2016-08-27T13:36:23Z</time>
   </trkpt>
   <trkpt lat="53.8575900" lon="-2.3340510">
    <ele>438.1</ele>
    <time>2016-08-27T13:36:28Z</time>
   </trkpt>
   <trkpt lat="53.8576370" lon="-2.3341140">
    <ele>438.5</ele>
    <time>2016-08-27T13:36:32Z</time>
   </trkpt>
   <trkpt lat="53.8575430" lon="-2.3342640">
    <ele>436.7</ele>
    <time>2016-08-27T13:36:36Z</time>
   </trkpt>
   <trkpt lat="53.8575230" lon="-2.3343020">
    <ele>436.3</ele>
    <time>2016-08-27T13:36:37Z</time>
   </trkpt>
   <trkpt lat="53.8573940" lon="-2.3345580">
    <ele>433.6</ele>
    <time>2016-08-27T13:36:41Z</time>
   </trkpt>
   <trkpt lat="53.8572760" lon="-2.3347960">
    <ele>430.8</ele>
    <time>2016-08-27T13:36:45Z</time>
   </trkpt>
   <trkpt lat="53.8571160" lon="-2.3350670">
    <ele>427.6</ele>
    <time>2016-08-27T13:36:50Z</time>
   </trkpt>
   <trkpt lat="53.8569930" lon="-2.3352950">
    <ele>424.1</ele>
    <time>2016-08-27T13:36:54Z</time>
   </trkpt>
   <trkpt lat="53.8568800" lon="-2.3355330">
    <ele>420.6</ele>
    <time>2016-08-27T13:36:58Z</time>
   </trkpt>
   <trkpt lat="53.8567660" lon="-2.3357480">
    <ele>417.3</ele>
    <time>2016-08-27T13:37:02Z</time>
   </trkpt>
   <trkpt lat="53.8566490" lon="-2.3359680">
    <ele>414.1</ele>
    <time>2016-08-27T13:37:06Z</time>
   </trkpt>
   <trkpt lat="53.8565170" lon="-2.3362440">
    <ele>410.8</ele>
    <time>2016-08-27T13:37:11Z</time>
   </trkpt>
   <trkpt lat="53.8564310" lon="-2.3364140">
    <ele>408.1</ele>
    <time>2016-08-27T13:37:14Z</time>
   </trkpt>
   <trkpt lat="53.8563160" lon="-2.3366510">
    <ele>404.8</ele>
    <time>2016-08-27T13:37:18Z</time>
   </trkpt>
   <trkpt lat="53.8562070" lon="-2.3368920">
    <ele>401.2</ele>
    <time>2016-08-27T13:37:22Z</time>
   </trkpt>
   <trkpt lat="53.8561820" lon="-2.3369460">
    <ele>400.2</ele>
    <time>2016-08-27T13:37:23Z</time>
   </trkpt>
   <trkpt lat="53.8561340" lon="-2.3370570">
    <ele>398.2</ele>
    <time>2016-08-27T13:37:25Z</time>
   </trkpt>
   <trkpt lat="53.8560810" lon="-2.3371740">
    <ele>396.1</ele>
    <time>2016-08-27T13:37:27Z</time>
   </trkpt>
   <trkpt lat="53.8559190" lon="-2.3375110">
    <ele>390.0</ele>
    <time>2016-08-27T13:37:33Z</time>
   </trkpt>
   <trkpt lat="53.8558900" lon="-2.3375670">
    <ele>388.9</ele>
    <time>2016-08-27T13:37:34Z</time>
   </trkpt>
   <trkpt lat="53.8558900" lon="-2.3375670">
    <ele>388.9</ele>
    <time>2016-08-27T13:37:38Z</time>
   </trkpt>
   <trkpt lat="53.8556810" lon="-2.3380570">
    <ele>380.9</ele>
    <time>2016-08-27T13:37:42Z</time>
   </trkpt>
   <trkpt lat="53.8555320" lon="-2.3383970">
    <ele>374.6</ele>
    <time>2016-08-27T13:37:48Z</time>
   </trkpt>
   <trkpt lat="53.8555320" lon="-2.3383970">
    <ele>374.6</ele>
    <time>2016-08-27T13:37:52Z</time>
   </trkpt>
   <trkpt lat="53.8552900" lon="-2.3388860">
    <ele>365.5</ele>
    <time>2016-08-27T13:37:57Z</time>
   </trkpt>
   <trkpt lat="53.8552580" lon="-2.3389320">
    <ele>364.3</ele>
    <time>2016-08-27T13:37:58Z</time>
   </trkpt>
   <trkpt lat="53.8551280" lon="-2.3391110">
    <ele>359.8</ele>
    <time>2016-08-27T13:38:02Z</time>
   </trkpt>
   <trkpt lat="53.8550190" lon="-2.3392160">
    <ele>356.2</ele>
    <time>2016-08-27T13:38:05Z</time>
   </trkpt>
   <trkpt lat="53.8548280" lon="-2.3393800">
    <ele>350.3</ele>
    <time>2016-08-27T13:38:10Z</time>
   </trkpt>
   <trkpt lat="53.8547670" lon="-2.3394790">
    <ele>348.4</ele>
    <time>2016-08-27T13:38:12Z</time>
   </trkpt>
   <trkpt lat="53.8546650" lon="-2.3396750">
    <ele>344.1</ele>
    <time>2016-08-27T13:38:16Z</time>
   </trkpt>
   <trkpt lat="53.8546090" lon="-2.3397680">
    <ele>341.3</ele>
    <time>2016-08-27T13:38:18Z</time>
   </trkpt>
   <trkpt lat="53.8544550" lon="-2.3400680">
    <ele>332.3</ele>
    <time>2016-08-27T13:38:24Z</time>
   </trkpt>
   <trkpt lat="53.8543450" lon="-2.3403420">
    <ele>325.4</ele>
    <time>2016-08-27T13:38:29Z</time>
   </trkpt>
   <trkpt lat="53.8542620" lon="-2.3404440">
    <ele>321.7</ele>
    <time>2016-08-27T13:38:32Z</time>
   </trkpt>
   <trkpt lat="53.8540860" lon="-2.3405420">
    <ele>315.4</ele>
    <time>2016-08-27T13:38:37Z</time>
   </trkpt>
   <trkpt lat="53.8539130" lon="-2.3406580">
    <ele>309.3</ele>
    <time>2016-08-27T13:38:42Z</time>
   </trkpt>
   <trkpt lat="53.8537680" lon="-2.3407940">
    <ele>304.2</ele>
    <time>2016-08-27T13:38:48Z</time>
   </trkpt>
   <trkpt lat="53.8536790" lon="-2.3409100">
    <ele>300.9</ele>
    <time>2016-08-27T13:38:53Z</time>
   </trkpt>
   <trkpt lat="53.8535410" lon="-2.3410190">
    <ele>296.2</ele>
    <time>2016-08-27T13:38:59Z</time>
   </trkpt>
   <trkpt lat="53.8535410" lon="-2.3410190">
    <ele>296.2</ele>
    <time>2016-08-27T13:39:06Z</time>
   </trkpt>
   <trkpt lat="53.8533620" lon="-2.3411420">
    <ele>290.1</ele>
    <time>2016-08-27T13:39:07Z</time>
   </trkpt>
   <trkpt lat="53.8533170" lon="-2.3412250">
    <ele>288.2</ele>
    <time>2016-08-27T13:39:10Z</time>
   </trkpt>
   <trkpt lat="53.8532210" lon="-2.3414360">
    <ele>282.9</ele>
    <time>2016-08-27T13:39:17Z</time>
   </trkpt>
   <trkpt lat="53.8530810" lon="-2.3415660">
    <ele>277.4</ele>
    <time>2016-08-27T13:39:23Z</time>
   </trkpt>
   <trkpt lat="53.8529680" lon="-2.3417580">
    <ele>272.4</ele>
    <time>2016-08-27T13:39:30Z</time>
   </trkpt>
   <trkpt lat="53.8528750" lon="-2.3418500">
    <ele>270.0</ele>
    <time>2016-08-27T13:39:35Z</time>
   </trkpt>
   <trkpt lat="53.8527940" lon="-2.3419470">
    <ele>268.4</ele>
    <time>2016-08-27T13:39:40Z</time>
   </trkpt>
   <trkpt lat="53.8526700" lon="-2.3420470">
    <ele>266.6</ele>
    <time>2016-08-27T13:39:46Z</time>
   </trkpt>
   <trkpt lat="53.8525720" lon="-2.3421170">
    <ele>265.2</ele>
    <time>2016-08-27T13:39:50Z</time>
   </trkpt>
   <trkpt lat="53.8524620" lon="-2.3424550">
    <ele>261.1</ele>
    <time>2016-08-27T13:39:57Z</time>
   </trkpt>
   <trkpt lat="53.8523830" lon="-2.3426540">
    <ele>258.5</ele>
    <time>2016-08-27T13:40:01Z</time>
   </trkpt>
   <trkpt lat="53.8522990" lon="-2.3429750">
    <ele>254.6</ele>
    <time>2016-08-27T13:40:06Z</time>
   </trkpt>
   <trkpt lat="53.8522850" lon="-2.3430390">
    <ele>254.0</ele>
    <time>2016-08-27T13:40:07Z</time>
   </trkpt>
   <trkpt lat="53.8521950" lon="-2.3432310">
    <ele>251.9</ele>
    <time>2016-08-27T13:40:11Z</time>
   </trkpt>
   <trkpt lat="53.8520630" lon="-2.3434140">
    <ele>250.6</ele>
    <time>2016-08-27T13:40:16Z</time>
   </trkpt>
   <trkpt lat="53.8520530" lon="-2.3434440">
    <ele>250.7</ele>
    <time>2016-08-27T13:40:17Z</time>
   </trkpt>
   <trkpt lat="53.8520030" lon="-2.3434670">
    <ele>252.1</ele>
    <time>2016-08-27T13:40:20Z</time>
   </trkpt>
   <trkpt lat="53.8519130" lon="-2.3434650">
    <ele>254.8</ele>
    <time>2016-08-27T13:40:24Z</time>
   </trkpt>
   <trkpt lat="53.8518870" lon="-2.3434640">
    <ele>255.5</ele>
    <time>2016-08-27T13:40:25Z</time>
   </trkpt>
   <trkpt lat="53.8518000" lon="-2.3434410">
    <ele>258.3</ele>
    <time>2016-08-27T13:40:28Z</time>
   </trkpt>
   <trkpt lat="53.8517350" lon="-2.3434740">
    <ele>260.0</ele>
    <time>2016-08-27T13:40:32Z</time>
   </trkpt>
   <trkpt lat="53.8516620" lon="-2.3435220">
    <ele>261.8</ele>
    <time>2016-08-27T13:40:37Z</time>
   </trkpt>
   <trkpt lat="53.8515890" lon="-2.3436540">
    <ele>262.9</ele>
    <time>2016-08-27T13:40:41Z</time>
   </trkpt>
   <trkpt lat="53.8515890" lon="-2.3436540">
    <ele>262.9</ele>
    <time>2016-08-27T13:40:42Z</time>
   </trkpt>
   <trkpt lat="53.8515280" lon="-2.3438420">
    <ele>263.4</ele>
    <time>2016-08-27T13:40:48Z</time>
   </trkpt>
   <trkpt lat="53.8514780" lon="-2.3439880">
    <ele>263.9</ele>
    <time>2016-08-27T13:40:53Z</time>
   </trkpt>
   <trkpt lat="53.8514680" lon="-2.3440680">
    <ele>263.6</ele>
    <time>2016-08-27T13:40:55Z</time>
   </trkpt>
   <trkpt lat="53.8514290" lon="-2.3442130">
    <ele>263.7</ele>
    <time>2016-08-27T13:40:59Z</time>
   </trkpt>
   <trkpt lat="53.8514010" lon="-2.3444200">
    <ele>263.1</ele>
    <time>2016-08-27T13:41:04Z</time>
   </trkpt>
   <trkpt lat="53.8513110" lon="-2.3445980">
    <ele>264.3</ele>
    <time>2016-08-27T13:41:10Z</time>
   </trkpt>
   <trkpt lat="53.8512980" lon="-2.3446140">
    <ele>264.5</ele>
    <time>2016-08-27T13:41:11Z</time>
   </trkpt>
   <trkpt lat="53.8512740" lon="-2.3447730">
    <ele>264.0</ele>
    <time>2016-08-27T13:41:16Z</time>
   </trkpt>
   <trkpt lat="53.8512630" lon="-2.3448150">
    <ele>264.0</ele>
    <time>2016-08-27T13:41:17Z</time>
   </trkpt>
   <trkpt lat="53.8511990" lon="-2.3450430">
    <ele>263.9</ele>
    <time>2016-08-27T13:41:23Z</time>
   </trkpt>
   <trkpt lat="53.8511330" lon="-2.3452630">
    <ele>263.7</ele>
    <time>2016-08-27T13:41:29Z</time>
   </trkpt>
   <trkpt lat="53.8510540" lon="-2.3454800">
    <ele>263.7</ele>
    <time>2016-08-27T13:41:35Z</time>
   </trkpt>
   <trkpt lat="53.8510160" lon="-2.3455960">
    <ele>263.6</ele>
    <time>2016-08-27T13:41:38Z</time>
   </trkpt>
   <trkpt lat="53.8509360" lon="-2.3458990">
    <ele>262.7</ele>
    <time>2016-08-27T13:41:45Z</time>
   </trkpt>
   <trkpt lat="53.8508400" lon="-2.3460680">
    <ele>263.0</ele>
    <time>2016-08-27T13:41:51Z</time>
   </trkpt>
   <trkpt lat="53.8507510" lon="-2.3462220">
    <ele>263.2</ele>
    <time>2016-08-27T13:41:57Z</time>
   </trkpt>
   <trkpt lat="53.8506640" lon="-2.3464850">
    <ele>262.7</ele>
    <time>2016-08-27T13:42:04Z</time>
   </trkpt>
   <trkpt lat="53.8506570" lon="-2.3465240">
    <ele>262.6</ele>
    <time>2016-08-27T13:42:05Z</time>
   </trkpt>
   <trkpt lat="53.8506450" lon="-2.3467420">
    <ele>261.1</ele>
    <time>2016-08-27T13:42:10Z</time>
   </trkpt>
   <trkpt lat="53.8506160" lon="-2.3469680">
    <ele>259.8</ele>
    <time>2016-08-27T13:42:15Z</time>
   </trkpt>
   <trkpt lat="53.8506060" lon="-2.3472480">
    <ele>257.8</ele>
    <time>2016-08-27T13:42:20Z</time>
   </trkpt>
   <trkpt lat="53.8505660" lon="-2.3475750">
    <ele>255.9</ele>
    <time>2016-08-27T13:42:26Z</time>
   </trkpt>
   <trkpt lat="53.8505220" lon="-2.3478520">
    <ele>254.2</ele>
    <time>2016-08-27T13:42:31Z</time>
   </trkpt>
   <trkpt lat="53.8504430" lon="-2.3481010">
    <ele>252.9</ele>
    <time>2016-08-27T13:42:36Z</time>
   </trkpt>
   <trkpt lat="53.8503260" lon="-2.3483730">
    <ele>251.2</ele>
    <time>2016-08-27T13:42:42Z</time>
   </trkpt>
   <trkpt lat="53.8502170" lon="-2.3485860">
    <ele>250.0</ele>
    <time>2016-08-27T13:42:47Z</time>
   </trkpt>
   <trkpt lat="53.8501020" lon="-2.3488540">
    <ele>248.4</ele>
    <time>2016-08-27T13:42:53Z</time>
   </trkpt>
   <trkpt lat="53.8500050" lon="-2.3490500">
    <ele>247.4</ele>
    <time>2016-08-27T13:42:57Z</time>
   </trkpt>
   <trkpt lat="53.8498900" lon="-2.3492540">
    <ele>246.6</ele>
    <time>2016-08-27T13:43:02Z</time>
   </trkpt>
   <trkpt lat="53.8497680" lon="-2.3494520">
    <ele>245.8</ele>
    <time>2016-08-27T13:43:07Z</time>
   </trkpt>
   <trkpt lat="53.8496230" lon="-2.3496370">
    <ele>245.3</ele>
    <time>2016-08-27T13:43:13Z</time>
   </trkpt>
   <trkpt lat="53.8495440" lon="-2.3497860">
    <ele>244.6</ele>
    <time>2016-08-27T13:43:17Z</time>
   </trkpt>
   <trkpt lat="53.8494850" lon="-2.3499260">
    <ele>243.7</ele>
    <time>2016-08-27T13:43:20Z</time>
   </trkpt>
   <trkpt lat="53.8494270" lon="-2.3500150">
    <ele>243.1</ele>
    <time>2016-08-27T13:43:23Z</time>
   </trkpt>
   <trkpt lat="53.8493720" lon="-2.3502380">
    <ele>241.5</ele>
    <time>2016-08-27T13:43:28Z</time>
   </trkpt>
   <trkpt lat="53.8493650" lon="-2.3502900">
    <ele>241.2</ele>
    <time>2016-08-27T13:43:29Z</time>
   </trkpt>
   <trkpt lat="53.8493270" lon="-2.3506420">
    <ele>239.0</ele>
    <time>2016-08-27T13:43:35Z</time>
   </trkpt>
   <trkpt lat="53.8493150" lon="-2.3506980">
    <ele>238.6</ele>
    <time>2016-08-27T13:43:36Z</time>
   </trkpt>
   <trkpt lat="53.8493030" lon="-2.3510670">
    <ele>236.4</ele>
    <time>2016-08-27T13:43:42Z</time>
   </trkpt>
   <trkpt lat="53.8493030" lon="-2.3510670">
    <ele>236.4</ele>
    <time>2016-08-27T13:43:47Z</time>
   </trkpt>
   <trkpt lat="53.8492720" lon="-2.3516040">
    <ele>231.7</ele>
    <time>2016-08-27T13:43:51Z</time>
   </trkpt>
   <trkpt lat="53.8492700" lon="-2.3516940">
    <ele>230.8</ele>
    <time>2016-08-27T13:43:53Z</time>
   </trkpt>
   <trkpt lat="53.8492470" lon="-2.3520400">
    <ele>227.3</ele>
    <time>2016-08-27T13:43:59Z</time>
   </trkpt>
   <trkpt lat="53.8492470" lon="-2.3520400">
    <ele>227.3</ele>
    <time>2016-08-27T13:44:04Z</time>
   </trkpt>
   <trkpt lat="53.8492230" lon="-2.3523810">
    <ele>224.0</ele>
    <time>2016-08-27T13:44:05Z</time>
   </trkpt>
   <trkpt lat="53.8492160" lon="-2.3526670">
    <ele>221.3</ele>
    <time>2016-08-27T13:44:10Z</time>
   </trkpt>
   <trkpt lat="53.8492090" lon="-2.3528660">
    <ele>219.4</ele>
    <time>2016-08-27T13:44:14Z</time>
   </trkpt>
   <trkpt lat="53.8491570" lon="-2.3531430">
    <ele>217.0</ele>
    <time>2016-08-27T13:44:20Z</time>
   </trkpt>
   <trkpt lat="53.8491280" lon="-2.3533760">
    <ele>215.0</ele>
    <time>2016-08-27T13:44:24Z</time>
   </trkpt>
   <trkpt lat="53.8491240" lon="-2.3536950">
    <ele>212.1</ele>
    <time>2016-08-27T13:44:29Z</time>
   </trkpt>
   <trkpt lat="53.8491110" lon="-2.3540340">
    <ele>209.5</ele>
    <time>2016-08-27T13:44:35Z</time>
   </trkpt>
   <trkpt lat="53.8491230" lon="-2.3543060">
    <ele>207.4</ele>
    <time>2016-08-27T13:44:39Z</time>
   </trkpt>
   <trkpt lat="53.8491300" lon="-2.3544870">
    <ele>205.9</ele>
    <time>2016-08-27T13:44:43Z</time>
   </trkpt>
   <trkpt lat="53.8491340" lon="-2.3546830">
    <ele>204.1</ele>
    <time>2016-08-27T13:44:47Z</time>
   </trkpt>
   <trkpt lat="53.8491120" lon="-2.3549690">
    <ele>201.2</ele>
    <time>2016-08-27T13:44:53Z</time>
   </trkpt>
   <trkpt lat="53.8491070" lon="-2.3551870">
    <ele>199.0</ele>
    <time>2016-08-27T13:44:57Z</time>
   </trkpt>
   <trkpt lat="53.8490910" lon="-2.3554300">
    <ele>196.5</ele>
    <time>2016-08-27T13:45:02Z</time>
   </trkpt>
   <trkpt lat="53.8491150" lon="-2.3556200">
    <ele>194.7</ele>
    <time>2016-08-27T13:45:06Z</time>
   </trkpt>
   <trkpt lat="53.8491040" lon="-2.3557300">
    <ele>193.7</ele>
    <time>2016-08-27T13:45:11Z</time>
   </trkpt>
   <trkpt lat="53.8491240" lon="-2.3559060">
    <ele>192.1</ele>
    <time>2016-08-27T13:45:16Z</time>
   </trkpt>
   <trkpt lat="53.8491730" lon="-2.3561200">
    <ele>190.2</ele>
    <time>2016-08-27T13:45:22Z</time>
   </trkpt>
   <trkpt lat="53.8491710" lon="-2.3563310">
    <ele>189.0</ele>
    <time>2016-08-27T13:45:27Z</time>
   </trkpt>
   <trkpt lat="53.8491590" lon="-2.3564320">
    <ele>188.9</ele>
    <time>2016-08-27T13:45:30Z</time>
   </trkpt>
   <trkpt lat="53.8491540" lon="-2.3565760">
    <ele>188.8</ele>
    <time>2016-08-27T13:45:34Z</time>
   </trkpt>
   <trkpt lat="53.8491540" lon="-2.3567610">
    <ele>188.6</ele>
    <time>2016-08-27T13:45:39Z</time>
   </trkpt>
   <trkpt lat="53.8491540" lon="-2.3567610">
    <ele>188.6</ele>
    <time>2016-08-27T13:45:42Z</time>
   </trkpt>
   <trkpt lat="53.8490670" lon="-2.3570450">
    <ele>187.9</ele>
    <time>2016-08-27T13:45:48Z</time>
   </trkpt>
   <trkpt lat="53.8490540" lon="-2.3570740">
    <ele>187.8</ele>
    <time>2016-08-27T13:45:49Z</time>
   </trkpt>
   <trkpt lat="53.8489480" lon="-2.3572440">
    <ele>186.9</ele>
    <time>2016-08-27T13:45:56Z</time>
   </trkpt>
   <trkpt lat="53.8488920" lon="-2.3573440">
    <ele>186.3</ele>
    <time>2016-08-27T13:46:02Z</time>
   </trkpt>
   <trkpt lat="53.8488620" lon="-2.3574600">
    <ele>185.9</ele>
    <time>2016-08-27T13:46:08Z</time>
   </trkpt>
   <trkpt lat="53.8487910" lon="-2.3575550">
    <ele>185.2</ele>
    <time>2016-08-27T13:46:15Z</time>
   </trkpt>
   <trkpt lat="53.8487730" lon="-2.3575840">
    <ele>185.0</ele>
    <time>2016-08-27T13:46:17Z</time>
   </trkpt>
   <trkpt lat="53.8487590" lon="-2.3576140">
    <ele>184.8</ele>
    <time>2016-08-27T13:46:19Z</time>
   </trkpt>
   <trkpt lat="53.8486200" lon="-2.3577240">
    <ele>183.4</ele>
    <time>2016-08-27T13:46:25Z</time>
   </trkpt>
   <trkpt lat="53.8485170" lon="-2.3578030">
    <ele>182.3</ele>
    <time>2016-08-27T13:46:29Z</time>
   </trkpt>
   <trkpt lat="53.8485020" lon="-2.3579440">
    <ele>181.5</ele>
    <time>2016-08-27T13:46:34Z</time>
   </trkpt>
   <trkpt lat="53.8484990" lon="-2.3581210">
    <ele>180.5</ele>
    <time>2016-08-27T13:46:38Z</time>
   </trkpt>
   <trkpt lat="53.8485170" lon="-2.3584520">
    <ele>178.7</ele>
    <time>2016-08-27T13:46:44Z</time>
   </trkpt>
   <trkpt lat="53.8485570" lon="-2.3587600">
    <ele>176.9</ele>
    <time>2016-08-27T13:46:49Z</time>
   </trkpt>
   <trkpt lat="53.8486060" lon="-2.3591060">
    <ele>175.0</ele>
    <time>2016-08-27T13:46:54Z</time>
   </trkpt>
   <trkpt lat="53.8486170" lon="-2.3591750">
    <ele>174.5</ele>
    <time>2016-08-27T13:46:55Z</time>
   </trkpt>
   <trkpt lat="53.8486860" lon="-2.3594510">
    <ele>172.4</ele>
    <time>2016-08-27T13:46:59Z</time>
   </trkpt>
   <trkpt lat="53.8487220" lon="-2.3598550">
    <ele>170.3</ele>
    <time>2016-08-27T13:47:05Z</time>
   </trkpt>
   <trkpt lat="53.8487270" lon="-2.3599270">
    <ele>170.0</ele>
    <time>2016-08-27T13:47:06Z</time>
   </trkpt>
   <trkpt lat="53.8487640" lon="-2.3601920">
    <ele>168.9</ele>
    <time>2016-08-27T13:47:10Z</time>
   </trkpt>
   <trkpt lat="53.8487830" lon="-2.3603270">
    <ele>168.6</ele>
    <time>2016-08-27T13:47:12Z</time>
   </trkpt>
   <trkpt lat="53.8488350" lon="-2.3607180">
    <ele>167.5</ele>
    <time>2016-08-27T13:47:18Z</time>
   </trkpt>
   <trkpt lat="53.8488650" lon="-2.3610460">
    <ele>166.4</ele>
    <time>2016-08-27T13:47:23Z</time>
   </trkpt>
   <trkpt lat="53.8489020" lon="-2.3613750">
    <ele>165.2</ele>
    <time>2016-08-27T13:47:28Z</time>
   </trkpt>
   <trkpt lat="53.8489500" lon="-2.3616980">
    <ele>164.0</ele>
    <time>2016-08-27T13:47:33Z</time>
   </trkpt>
   <trkpt lat="53.8489980" lon="-2.3620370">
    <ele>162.5</ele>
    <time>2016-08-27T13:47:38Z</time>
   </trkpt>
   <trkpt lat="53.8489980" lon="-2.3620370">
    <ele>162.5</ele>
    <time>2016-08-27T13:47:43Z</time>
   </trkpt>
   <trkpt lat="53.8491150" lon="-2.3626100">
    <ele>160.0</ele>
    <time>2016-08-27T13:47:47Z</time>
   </trkpt>
   <trkpt lat="53.8491560" lon="-2.3627340">
    <ele>159.4</ele>
    <time>2016-08-27T13:47:49Z</time>
   </trkpt>
   <trkpt lat="53.8492580" lon="-2.3631070">
    <ele>157.7</ele>
    <time>2016-08-27T13:47:55Z</time>
   </trkpt>
   <trkpt lat="53.8493510" lon="-2.3634290">
    <ele>156.3</ele>
    <time>2016-08-27T13:48:00Z</time>
   </trkpt>
   <trkpt lat="53.8494440" lon="-2.3637280">
    <ele>154.8</ele>
    <time>2016-08-27T13:48:05Z</time>
   </trkpt>
   <trkpt lat="53.8495150" lon="-2.3640620">
    <ele>153.3</ele>
    <time>2016-08-27T13:48:10Z</time>
   </trkpt>
   <trkpt lat="53.8495860" lon="-2.3643750">
    <ele>151.8</ele>
    <time>2016-08-27T13:48:15Z</time>
   </trkpt>
   <trkpt lat="53.8496050" lon="-2.3644330">
    <ele>151.6</ele>
    <time>2016-08-27T13:48:16Z</time>
   </trkpt>
   <trkpt lat="53.8497110" lon="-2.3648290">
    <ele>150.7</ele>
    <time>2016-08-27T13:48:23Z</time>
   </trkpt>
   <trkpt lat="53.8497800" lon="-2.3651080">
    <ele>150.2</ele>
    <time>2016-08-27T13:48:28Z</time>
   </trkpt>
   <trkpt lat="53.8498540" lon="-2.3654030">
    <ele>149.4</ele>
    <time>2016-08-27T13:48:33Z</time>
   </trkpt>
   <trkpt lat="53.8498540" lon="-2.3654030">
    <ele>149.4</ele>
    <time>2016-08-27T13:48:37Z</time>
   </trkpt>
   <trkpt lat="53.8500150" lon="-2.3658910">
    <ele>147.8</ele>
    <time>2016-08-27T13:48:41Z</time>
   </trkpt>
   <trkpt lat="53.8501690" lon="-2.3663250">
    <ele>145.6</ele>
    <time>2016-08-27T13:48:48Z</time>
   </trkpt>
   <trkpt lat="53.8502810" lon="-2.3666130">
    <ele>144.1</ele>
    <time>2016-08-27T13:48:53Z</time>
   </trkpt>
   <trkpt lat="53.8503940" lon="-2.3668910">
    <ele>142.6</ele>
    <time>2016-08-27T13:48:58Z</time>
   </trkpt>
   <trkpt lat="53.8505080" lon="-2.3671580">
    <ele>141.6</ele>
    <time>2016-08-27T13:49:03Z</time>
   </trkpt>
   <trkpt lat="53.8506060" lon="-2.3673590">
    <ele>140.9</ele>
    <time>2016-08-27T13:49:07Z</time>
   </trkpt>
   <trkpt lat="53.8507390" lon="-2.3676350">
    <ele>139.9</ele>
    <time>2016-08-27T13:49:13Z</time>
   </trkpt>
   <trkpt lat="53.8508550" lon="-2.3678980">
    <ele>138.9</ele>
    <time>2016-08-27T13:49:19Z</time>
   </trkpt>
   <trkpt lat="53.8509840" lon="-2.3681340">
    <ele>138.0</ele>
    <time>2016-08-27T13:49:25Z</time>
   </trkpt>
   <trkpt lat="53.8511020" lon="-2.3684360">
    <ele>137.1</ele>
    <time>2016-08-27T13:49:31Z</time>
   </trkpt>
   <trkpt lat="53.8511850" lon="-2.3686320">
    <ele>136.5</ele>
    <time>2016-08-27T13:49:35Z</time>
   </trkpt>
   <trkpt lat="53.8511850" lon="-2.3686320">
    <ele>136.5</ele>
    <time>2016-08-27T13:49:38Z</time>
   </trkpt>
   <trkpt lat="53.8513770" lon="-2.3689000">
    <ele>135.6</ele>
    <time>2016-08-27T13:49:44Z</time>
   </trkpt>
   <trkpt lat="53.8514500" lon="-2.3690430">
    <ele>135.3</ele>
    <time>2016-08-27T13:49:48Z</time>
   </trkpt>
   <trkpt lat="53.8514500" lon="-2.3690430">
    <ele>135.3</ele>
    <time>2016-08-27T13:49:53Z</time>
   </trkpt>
   <trkpt lat="53.8516530" lon="-2.3696130">
    <ele>133.9</ele>
    <time>2016-08-27T13:49:58Z</time>
   </trkpt>
   <trkpt lat="53.8516580" lon="-2.3696840">
    <ele>133.7</ele>
    <time>2016-08-27T13:49:59Z</time>
   </trkpt>
   <trkpt lat="53.8516640" lon="-2.3699790">
    <ele>132.6</ele>
    <time>2016-08-27T13:50:03Z</time>
   </trkpt>
   <trkpt lat="53.8516580" lon="-2.3703930">
    <ele>131.1</ele>
    <time>2016-08-27T13:50:09Z</time>
   </trkpt>
   <trkpt lat="53.8516600" lon="-2.3707190">
    <ele>130.3</ele>
    <time>2016-08-27T13:50:14Z</time>
   </trkpt>
   <trkpt lat="53.8516620" lon="-2.3710540">
    <ele>129.5</ele>
    <time>2016-08-27T13:50:19Z</time>
   </trkpt>
   <trkpt lat="53.8516440" lon="-2.3713730">
    <ele>128.8</ele>
    <time>2016-08-27T13:50:24Z</time>
   </trkpt>
   <trkpt lat="53.8516620" lon="-2.3716930">
    <ele>128.2</ele>
    <time>2016-08-27T13:50:29Z</time>
   </trkpt>
   <trkpt lat="53.8517090" lon="-2.3720120">
    <ele>127.6</ele>
    <time>2016-08-27T13:50:34Z</time>
   </trkpt>
   <trkpt lat="53.8517740" lon="-2.3722230">
    <ele>127.1</ele>
    <time>2016-08-27T13:50:38Z</time>
   </trkpt>
   <trkpt lat="53.8518910" lon="-2.3724700">
    <ele>126.7</ele>
    <time>2016-08-27T13:50:43Z</time>
   </trkpt>
   <trkpt lat="53.8519160" lon="-2.3725200">
    <ele>126.6</ele>
    <time>2016-08-27T13:50:44Z</time>
   </trkpt>
   <trkpt lat="53.8520350" lon="-2.3727830">
    <ele>126.2</ele>
    <time>2016-08-27T13:50:49Z</time>
   </trkpt>
   <trkpt lat="53.8520350" lon="-2.3727830">
    <ele>126.2</ele>
    <time>2016-08-27T13:50:51Z</time>
   </trkpt>
   <trkpt lat="53.8521480" lon="-2.3730950">
    <ele>125.6</ele>
    <time>2016-08-27T13:50:54Z</time>
   </trkpt>
   <trkpt lat="53.8523090" lon="-2.3734470">
    <ele>124.8</ele>
    <time>2016-08-27T13:51:00Z</time>
   </trkpt>
   <trkpt lat="53.8523350" lon="-2.3734940">
    <ele>124.7</ele>
    <time>2016-08-27T13:51:01Z</time>
   </trkpt>
   <trkpt lat="53.8524890" lon="-2.3737180">
    <ele>124.1</ele>
    <time>2016-08-27T13:51:06Z</time>
   </trkpt>
   <trkpt lat="53.8525210" lon="-2.3737640">
    <ele>123.9</ele>
    <time>2016-08-27T13:51:07Z</time>
   </trkpt>
   <trkpt lat="53.8526190" lon="-2.3738930">
    <ele>123.5</ele>
    <time>2016-08-27T13:51:10Z</time>
   </trkpt>
   <trkpt lat="53.8527380" lon="-2.3739160">
    <ele>123.2</ele>
    <time>2016-08-27T13:51:14Z</time>
   </trkpt>
   <trkpt lat="53.8527870" lon="-2.3738270">
    <ele>123.2</ele>
    <time>2016-08-27T13:51:16Z</time>
   </trkpt>
  </trkseg>
 </trk>
</gpx>
